sensor_id;sensor_type;location;lat;lon;timestamp;pressure;altitude;pressure_sealevel;temperature;humidity
6389;BME280;3227;42.654;23.360;2024-01-16T00:01:12;92914.50;;;4.57;74.20
6389;BME280;3227;42.654;23.360;2024-01-16T00:03:39;92936.38;;;4.87;74.62
6389;BME280;3227;42.654;23.360;2024-01-16T00:06:06;92909.34;;;4.80;72.67
6389;BME280;3227;42.654;23.360;2024-01-16T00:08:33;92948.31;;;4.67;73.81
6389;BME280;3227;42.654;23.360;2024-01-16T00:11:03;92951.56;;;4.95;73.25
6389;BME280;3227;42.654;23.360;2024-01-16T00:13:29;92928.84;;;4.66;73.17
6389;BME280;3227;42.654;23.360;2024-01-16T00:15:56;92933.84;;;4.80;72.47
6389;BME280;3227;42.654;23.360;2024-01-16T00:18:23;92948.97;;;5.07;72.56
6389;BME280;3227;42.654;23.360;2024-01-16T00:20:50;92942.22;;;5.05;72.27
6389;BME280;3227;42.654;23.360;2024-01-16T00:23:16;92944.72;;;5.12;73.19
6389;BME280;3227;42.654;23.360;2024-01-16T00:25:43;92929.56;;;5.00;70.44
6389;BME280;3227;42.654;23.360;2024-01-16T00:28:11;92955.84;;;4.78;72.03
6389;BME280;3227;42.654;23.360;2024-01-16T00:30:38;92951.59;;;4.89;72.71
6389;BME280;3227;42.654;23.360;2024-01-16T00:33:05;92951.63;;;4.78;72.58
6389;BME280;3227;42.654;23.360;2024-01-16T00:35:32;92958.53;;;4.44;74.21
6389;BME280;3227;42.654;23.360;2024-01-16T00:37:58;92958.47;;;4.53;73.12
6389;BME280;3227;42.654;23.360;2024-01-16T00:40:25;92971.06;;;4.81;73.98
6389;BME280;3227;42.654;23.360;2024-01-16T00:42:52;92960.03;;;4.94;73.54
6389;BME280;3227;42.654;23.360;2024-01-16T00:45:20;92960.09;;;4.70;72.89
6389;BME280;3227;42.654;23.360;2024-01-16T00:47:47;92961.03;;;4.38;74.80
6389;BME280;3227;42.654;23.360;2024-01-16T00:50:14;92963.59;;;4.44;76.03
6389;BME280;3227;42.654;23.360;2024-01-16T00:52:41;92970.28;;;4.68;76.32
6389;BME280;3227;42.654;23.360;2024-01-16T00:55:08;92983.69;;;4.94;74.60
6389;BME280;3227;42.654;23.360;2024-01-16T00:57:35;92993.03;;;4.86;74.11
6389;BME280;3227;42.654;23.360;2024-01-16T01:00:02;92968.50;;;4.87;73.71
6389;BME280;3227;42.654;23.360;2024-01-16T01:02:30;92972.00;;;4.58;74.71
6389;BME280;3227;42.654;23.360;2024-01-16T01:04:57;92999.03;;;4.69;75.31
6389;BME280;3227;42.654;23.360;2024-01-16T01:07:24;92999.81;;;4.86;75.39
6389;BME280;3227;42.654;23.360;2024-01-16T01:09:52;93004.78;;;5.15;74.22
6389;BME280;3227;42.654;23.360;2024-01-16T01:12:19;93004.72;;;5.31;73.29
6389;BME280;3227;42.654;23.360;2024-01-16T01:14:45;92988.47;;;5.60;73.00
6389;BME280;3227;42.654;23.360;2024-01-16T01:17:12;92990.91;;;5.73;72.61
6389;BME280;3227;42.654;23.360;2024-01-16T01:19:40;92969.81;;;5.61;71.55
6389;BME280;3227;42.654;23.360;2024-01-16T01:22:07;92990.00;;;5.82;71.14
6389;BME280;3227;42.654;23.360;2024-01-16T01:24:34;93012.84;;;5.85;72.02
6389;BME280;3227;42.654;23.360;2024-01-16T01:27:01;92998.44;;;5.86;71.41
6389;BME280;3227;42.654;23.360;2024-01-16T01:29:28;92995.06;;;5.91;71.37
6389;BME280;3227;42.654;23.360;2024-01-16T01:31:54;92990.78;;;5.95;70.84
6389;BME280;3227;42.654;23.360;2024-01-16T01:34:21;92986.59;;;5.89;70.38
6389;BME280;3227;42.654;23.360;2024-01-16T01:36:49;92935.94;;;5.63;71.72
6389;BME280;3227;42.654;23.360;2024-01-16T01:39:16;92942.75;;;5.60;70.34
6389;BME280;3227;42.654;23.360;2024-01-16T01:41:43;92980.03;;;5.55;71.69
6389;BME280;3227;42.654;23.360;2024-01-16T01:44:09;92952.91;;;5.57;71.68
6389;BME280;3227;42.654;23.360;2024-01-16T01:46:41;92989.19;;;5.77;71.02
6389;BME280;3227;42.654;23.360;2024-01-16T01:49:08;92975.78;;;5.60;72.34
6389;BME280;3227;42.654;23.360;2024-01-16T01:51:35;92968.13;;;5.63;73.42
6389;BME280;3227;42.654;23.360;2024-01-16T01:54:04;92984.97;;;5.76;72.85
6389;BME280;3227;42.654;23.360;2024-01-16T01:56:31;92995.06;;;5.85;72.87
6389;BME280;3227;42.654;23.360;2024-01-16T01:58:59;92993.34;;;5.95;73.27
6389;BME280;3227;42.654;23.360;2024-01-16T02:01:28;92981.41;;;6.04;73.52
6389;BME280;3227;42.654;23.360;2024-01-16T02:03:55;92990.63;;;6.16;73.08
6389;BME280;3227;42.654;23.360;2024-01-16T02:06:24;92962.72;;;6.08;72.36
6389;BME280;3227;42.654;23.360;2024-01-16T02:08:51;92923.91;;;5.88;72.68
6389;BME280;3227;42.654;23.360;2024-01-16T02:11:19;92993.94;;;6.26;72.74
6389;BME280;3227;42.654;23.360;2024-01-16T02:13:46;92985.50;;;6.21;72.88
6389;BME280;3227;42.654;23.360;2024-01-16T02:16:20;92969.47;;;6.09;72.78
6389;BME280;3227;42.654;23.360;2024-01-16T02:18:47;93008.31;;;6.33;72.18
6389;BME280;3227;42.654;23.360;2024-01-16T02:21:17;93007.47;;;6.31;72.93
6389;BME280;3227;42.654;23.360;2024-01-16T02:23:46;92999.03;;;6.24;72.86
6389;BME280;3227;42.654;23.360;2024-01-16T02:26:14;92920.63;;;5.72;73.91
6389;BME280;3227;42.654;23.360;2024-01-16T02:28:41;93010.00;;;6.32;74.04
6389;BME280;3227;42.654;23.360;2024-01-16T02:31:08;92989.66;;;6.31;73.83
6389;BME280;3227;42.654;23.360;2024-01-16T02:33:35;93006.53;;;6.41;74.11
6389;BME280;3227;42.654;23.360;2024-01-16T02:36:02;93016.72;;;6.41;73.92
6389;BME280;3227;42.654;23.360;2024-01-16T02:38:29;93023.44;;;6.46;74.18
6389;BME280;3227;42.654;23.360;2024-01-16T02:40:57;93024.19;;;6.58;74.16
6389;BME280;3227;42.654;23.360;2024-01-16T02:43:24;93031.78;;;6.59;74.50
6389;BME280;3227;42.654;23.360;2024-01-16T02:45:52;93039.41;;;6.64;74.37
6389;BME280;3227;42.654;23.360;2024-01-16T02:48:18;93043.63;;;6.66;74.08
6389;BME280;3227;42.654;23.360;2024-01-16T02:50:45;93044.47;;;6.65;74.12
6389;BME280;3227;42.654;23.360;2024-01-16T02:53:13;93016.78;;;6.29;73.35
6389;BME280;3227;42.654;23.360;2024-01-16T02:55:39;93050.50;;;6.55;73.63
6389;BME280;3227;42.654;23.360;2024-01-16T02:58:07;93070.09;;;6.44;75.06
6389;BME280;3227;42.654;23.360;2024-01-16T03:00:34;93060.06;;;6.26;74.47
6389;BME280;3227;42.654;23.360;2024-01-16T03:03:01;93110.22;;;6.05;75.52
6389;BME280;3227;42.654;23.360;2024-01-16T03:05:28;93112.91;;;5.73;77.38
6389;BME280;3227;42.654;23.360;2024-01-16T03:07:54;93120.53;;;5.69;78.43
6389;BME280;3227;42.654;23.360;2024-01-16T03:10:21;93115.44;;;5.75;78.28
6389;BME280;3227;42.654;23.360;2024-01-16T03:12:48;93079.00;;;5.70;78.75
6389;BME280;3227;42.654;23.360;2024-01-16T03:15:16;93114.63;;;5.64;79.22
6389;BME280;3227;42.654;23.360;2024-01-16T03:17:43;93136.56;;;5.92;78.29
6389;BME280;3227;42.654;23.360;2024-01-16T03:20:10;93155.22;;;5.90;79.75
6389;BME280;3227;42.654;23.360;2024-01-16T03:22:38;93167.88;;;5.97;79.09
6389;BME280;3227;42.654;23.360;2024-01-16T03:25:05;93165.31;;;6.03;80.62
6389;BME280;3227;42.654;23.360;2024-01-16T03:27:32;93172.16;;;5.79;82.52
6389;BME280;3227;42.654;23.360;2024-01-16T03:29:59;93178.94;;;5.84;82.77
6389;BME280;3227;42.654;23.360;2024-01-16T03:32:27;93152.66;;;5.82;81.96
6389;BME280;3227;42.654;23.360;2024-01-16T03:34:54;93178.13;;;5.74;85.90
6389;BME280;3227;42.654;23.360;2024-01-16T03:37:21;93102.84;;;5.46;86.77
6389;BME280;3227;42.654;23.360;2024-01-16T03:39:48;93195.03;;;5.88;88.09
6389;BME280;3227;42.654;23.360;2024-01-16T03:42:15;93135.00;;;5.59;89.28
6389;BME280;3227;42.654;23.360;2024-01-16T03:44:43;93206.81;;;6.05;90.50
6389;BME280;3227;42.654;23.360;2024-01-16T03:47:09;93195.03;;;5.92;92.32
6389;BME280;3227;42.654;23.360;2024-01-16T03:49:38;93223.81;;;5.99;92.67
6389;BME280;3227;42.654;23.360;2024-01-16T03:52:05;93219.56;;;5.99;92.89
6389;BME280;3227;42.654;23.360;2024-01-16T03:54:32;93225.53;;;5.92;92.78
6389;BME280;3227;42.654;23.360;2024-01-16T03:56:59;93230.63;;;5.85;92.86
6389;BME280;3227;42.654;23.360;2024-01-16T03:59:25;93223.00;;;5.82;93.12
6389;BME280;3227;42.654;23.360;2024-01-16T04:01:52;93250.91;;;6.01;91.93
6389;BME280;3227;42.654;23.360;2024-01-16T04:04:19;93261.91;;;6.06;91.51
6389;BME280;3227;42.654;23.360;2024-01-16T04:06:49;93272.09;;;6.06;90.21
6389;BME280;3227;42.654;23.360;2024-01-16T04:09:16;93272.97;;;5.93;90.26
6389;BME280;3227;42.654;23.360;2024-01-16T04:11:43;93279.75;;;5.81;90.60
6389;BME280;3227;42.654;23.360;2024-01-16T04:14:10;93285.66;;;5.78;90.93
6389;BME280;3227;42.654;23.360;2024-01-16T04:16:37;93295.00;;;5.68;90.25
6389;BME280;3227;42.654;23.360;2024-01-16T04:19:03;93295.00;;;5.71;90.27
6389;BME280;3227;42.654;23.360;2024-01-16T04:21:30;93305.16;;;5.82;89.28
6389;BME280;3227;42.654;23.360;2024-01-16T04:23:58;93281.50;;;5.47;89.05
6389;BME280;3227;42.654;23.360;2024-01-16T04:26:25;93316.19;;;5.66;87.62
6389;BME280;3227;42.654;23.360;2024-01-16T04:28:52;93308.56;;;5.54;88.92
6389;BME280;3227;42.654;23.360;2024-01-16T04:31:18;93320.44;;;5.61;87.74
6389;BME280;3227;42.654;23.360;2024-01-16T04:33:47;93320.44;;;5.61;88.05
6389;BME280;3227;42.654;23.360;2024-01-16T04:36:14;93322.13;;;5.47;87.27
6389;BME280;3227;42.654;23.360;2024-01-16T04:38:41;93320.44;;;5.56;87.49
6389;BME280;3227;42.654;23.360;2024-01-16T04:41:09;93151.22;;;4.47;86.46
6389;BME280;3227;42.654;23.360;2024-01-16T04:43:36;93331.44;;;5.35;87.42
6389;BME280;3227;42.654;23.360;2024-01-16T04:46:03;93335.69;;;5.36;87.05
6389;BME280;3227;42.654;23.360;2024-01-16T04:48:30;93168.13;;;4.19;87.21
6389;BME280;3227;42.654;23.360;2024-01-16T04:50:57;93360.22;;;5.36;86.70
6389;BME280;3227;42.654;23.360;2024-01-16T04:53:23;93364.44;;;5.20;87.16
6389;BME280;3227;42.654;23.360;2024-01-16T04:55:50;93362.75;;;5.07;88.08
6389;BME280;3227;42.654;23.360;2024-01-16T04:58:19;93374.63;;;5.17;88.00
6389;BME280;3227;42.654;23.360;2024-01-16T05:00:45;93228.88;;;4.04;87.94
6389;BME280;3227;42.654;23.360;2024-01-16T05:03:12;93395.75;;;5.07;87.55
6389;BME280;3227;42.654;23.360;2024-01-16T05:05:39;93397.41;;;4.91;87.63
6389;BME280;3227;42.654;23.360;2024-01-16T05:08:06;93408.41;;;4.98;87.33
6389;BME280;3227;42.654;23.360;2024-01-16T05:10:32;93411.81;;;5.03;86.38
6389;BME280;3227;42.654;23.360;2024-01-16T05:12:59;93427.06;;;5.09;85.95
6389;BME280;3227;42.654;23.360;2024-01-16T05:15:27;93429.59;;;5.08;86.65
6389;BME280;3227;42.654;23.360;2024-01-16T05:17:54;93437.19;;;5.03;85.32
6389;BME280;3227;42.654;23.360;2024-01-16T05:20:21;93438.03;;;4.99;86.48
6389;BME280;3227;42.654;23.360;2024-01-16T05:22:48;93421.06;;;4.89;86.44
6389;BME280;3227;42.654;23.360;2024-01-16T05:25:15;93450.66;;;4.87;85.08
6389;BME280;3227;42.654;23.360;2024-01-16T05:27:43;93459.91;;;4.73;85.50
6389;BME280;3227;42.654;23.360;2024-01-16T05:30:10;93464.09;;;4.62;85.44
6389;BME280;3227;42.654;23.360;2024-01-16T05:32:38;93475.06;;;4.57;85.58
6389;BME280;3227;42.654;23.360;2024-01-16T05:35:07;93486.88;;;4.54;85.52
6389;BME280;3227;42.654;23.360;2024-01-16T05:37:35;93480.03;;;4.41;85.85
6389;BME280;3227;42.654;23.360;2024-01-16T05:40:02;93418.13;;;4.07;85.23
6389;BME280;3227;42.654;23.360;2024-01-16T05:42:29;93497.88;;;4.51;85.36
6389;BME280;3227;42.654;23.360;2024-01-16T05:44:56;93500.41;;;4.56;85.43
6389;BME280;3227;42.654;23.360;2024-01-16T05:47:23;93504.63;;;4.55;85.06
6389;BME280;3227;42.654;23.360;2024-01-16T05:49:54;93425.75;;;4.07;85.60
6389;BME280;3227;42.654;23.360;2024-01-16T05:52:21;93529.22;;;4.61;85.38
6389;BME280;3227;42.654;23.360;2024-01-16T05:54:48;93524.09;;;4.55;84.03
6389;BME280;3227;42.654;23.360;2024-01-16T05:57:15;93521.53;;;4.49;83.25
6389;BME280;3227;42.654;23.360;2024-01-16T05:59:41;93553.69;;;4.51;83.68
6389;BME280;3227;42.654;23.360;2024-01-16T06:02:08;93551.13;;;4.50;83.43
6389;BME280;3227;42.654;23.360;2024-01-16T06:04:36;93576.63;;;4.68;83.48
6389;BME280;3227;42.654;23.360;2024-01-16T06:07:04;93574.94;;;4.72;81.38
6389;BME280;3227;42.654;23.360;2024-01-16T06:09:32;93577.53;;;4.79;81.62
6389;BME280;3227;42.654;23.360;2024-01-16T06:11:59;93592.81;;;4.88;82.02
6389;BME280;3227;42.654;23.360;2024-01-16T06:14:26;93596.97;;;4.80;82.24
6389;BME280;3227;42.654;23.360;2024-01-16T06:16:52;93604.66;;;4.85;80.83
6389;BME280;3227;42.654;23.360;2024-01-16T06:19:19;93613.97;;;4.90;81.97
6389;BME280;3227;42.654;23.360;2024-01-16T06:21:46;93605.53;;;4.96;81.26
6389;BME280;3227;42.654;23.360;2024-01-16T06:24:14;93568.06;;;4.55;80.61
6389;BME280;3227;42.654;23.360;2024-01-16T06:26:41;93617.47;;;5.09;81.21
6389;BME280;3227;42.654;23.360;2024-01-16T06:29:08;93623.38;;;5.05;80.76
6389;BME280;3227;42.654;23.360;2024-01-16T06:31:35;93630.22;;;5.20;81.47
6389;BME280;3227;42.654;23.360;2024-01-16T06:34:02;93547.88;;;4.69;79.82
6389;BME280;3227;42.654;23.360;2024-01-16T06:36:29;93636.91;;;5.04;79.70
6389;BME280;3227;42.654;23.360;2024-01-16T06:38:56;93659.75;;;5.04;79.96
6389;BME280;3227;42.654;23.360;2024-01-16T06:41:24;93680.72;;;4.79;80.30
6389;BME280;3227;42.654;23.360;2024-01-16T06:43:50;93680.63;;;4.70;79.94
6389;BME280;3227;42.654;23.360;2024-01-16T06:46:17;93680.72;;;4.79;80.91
6389;BME280;3227;42.654;23.360;2024-01-16T06:48:44;93691.72;;;4.79;78.67
6389;BME280;3227;42.654;23.360;2024-01-16T06:51:11;93695.09;;;4.77;77.67
6389;BME280;3227;42.654;23.360;2024-01-16T06:53:39;93709.38;;;4.66;77.65
6389;BME280;3227;42.654;23.360;2024-01-16T06:56:06;93706.75;;;4.58;76.50
6389;BME280;3227;42.654;23.360;2024-01-16T06:58:34;93659.06;;;4.19;76.96
6389;BME280;3227;42.654;23.360;2024-01-16T07:01:01;93708.41;;;4.54;76.76
6389;BME280;3227;42.654;23.360;2024-01-16T07:03:28;93727.06;;;4.58;75.92
6389;BME280;3227;42.654;23.360;2024-01-16T07:05:57;93732.16;;;4.63;76.28
6389;BME280;3227;42.654;23.360;2024-01-16T07:08:24;93710.09;;;4.52;76.19
6389;BME280;3227;42.654;23.360;2024-01-16T07:10:51;93729.66;;;4.66;76.49
6389;BME280;3227;42.654;23.360;2024-01-16T07:13:19;93729.53;;;4.53;76.90
6389;BME280;3227;42.654;23.360;2024-01-16T07:15:47;93750.84;;;4.69;78.11
6389;BME280;3227;42.654;23.360;2024-01-16T07:18:14;93762.91;;;4.91;76.82
6389;BME280;3227;42.654;23.360;2024-01-16T07:20:40;93777.22;;;4.88;75.37
6389;BME280;3227;42.654;23.360;2024-01-16T07:23:07;93789.00;;;4.77;75.54
6389;BME280;3227;42.654;23.360;2024-01-16T07:25:34;93793.28;;;4.84;75.95
6389;BME280;3227;42.654;23.360;2024-01-16T07:28:01;93785.44;;;4.59;76.36
6389;BME280;3227;42.654;23.360;2024-01-16T07:30:27;93800.81;;;4.75;76.72
6389;BME280;3227;42.654;23.360;2024-01-16T07:32:56;93804.25;;;4.81;76.16
6389;BME280;3227;42.654;23.360;2024-01-16T07:35:22;93814.41;;;4.81;74.96
6389;BME280;3227;42.654;23.360;2024-01-16T07:37:49;93776.06;;;4.54;76.45
6389;BME280;3227;42.654;23.360;2024-01-16T07:40:16;93819.44;;;4.77;75.42
6389;BME280;3227;42.654;23.360;2024-01-16T07:42:43;93825.44;;;4.85;75.59
6389;BME280;3227;42.654;23.360;2024-01-16T07:45:10;93826.31;;;4.90;74.48
6389;BME280;3227;42.654;23.360;2024-01-16T07:47:37;93825.50;;;4.91;73.56
6389;BME280;3227;42.654;23.360;2024-01-16T07:50:06;93823.75;;;4.87;75.47
6389;BME280;3227;42.654;23.360;2024-01-16T07:52:33;93825.50;;;4.91;74.43
6389;BME280;3227;42.654;23.360;2024-01-16T07:55:00;93838.22;;;4.92;73.82
6389;BME280;3227;42.654;23.360;2024-01-16T07:57:26;93848.41;;;4.97;74.56
6389;BME280;3227;42.654;23.360;2024-01-16T07:59:53;93843.25;;;4.91;73.93
6389;BME280;3227;42.654;23.360;2024-01-16T08:02:20;93855.19;;;4.98;74.13
6389;BME280;3227;42.654;23.360;2024-01-16T08:04:47;93863.50;;;4.83;73.31
6389;BME280;3227;42.654;23.360;2024-01-16T08:07:15;93862.47;;;4.68;75.54
6389;BME280;3227;42.654;23.360;2024-01-16T08:09:46;93835.16;;;4.44;75.05
6389;BME280;3227;42.654;23.360;2024-01-16T08:12:12;93881.09;;;4.71;74.99
6389;BME280;3227;42.654;23.360;2024-01-16T08:14:39;93886.16;;;4.68;74.99
6389;BME280;3227;42.654;23.360;2024-01-16T08:17:06;93880.41;;;4.86;74.61
6389;BME280;3227;42.654;23.360;2024-01-16T08:19:33;93893.97;;;4.85;74.68
6389;BME280;3227;42.654;23.360;2024-01-16T08:22:01;93897.47;;;4.96;75.40
6389;BME280;3227;42.654;23.360;2024-01-16T08:24:31;93899.38;;;5.15;75.86
6389;BME280;3227;42.654;23.360;2024-01-16T08:26:58;93880.59;;;5.01;73.65
6389;BME280;3227;42.654;23.360;2024-01-16T08:29:25;93844.78;;;4.74;72.64
6389;BME280;3227;42.654;23.360;2024-01-16T08:31:52;93904.41;;;5.14;73.71
6389;BME280;3227;42.654;23.360;2024-01-16T08:34:19;93865.28;;;4.95;72.06
6389;BME280;3227;42.654;23.360;2024-01-16T08:36:46;93869.13;;;4.58;72.24
6389;BME280;3227;42.654;23.360;2024-01-16T08:39:13;93932.97;;;4.91;72.55
6389;BME280;3227;42.654;23.360;2024-01-16T08:41:42;93939.78;;;4.97;74.36
6389;BME280;3227;42.654;23.360;2024-01-16T08:44:11;93933.09;;;5.02;73.62
6389;BME280;3227;42.654;23.360;2024-01-16T08:46:37;93872.44;;;4.54;72.95
6389;BME280;3227;42.654;23.360;2024-01-16T08:49:04;93954.19;;;4.98;73.68
6389;BME280;3227;42.654;23.360;2024-01-16T08:51:31;93791.44;;;3.95;72.29
6389;BME280;3227;42.654;23.360;2024-01-16T08:53:58;93965.13;;;4.92;72.16
6389;BME280;3227;42.654;23.360;2024-01-16T08:56:27;93970.22;;;4.94;71.26
6389;BME280;3227;42.654;23.360;2024-01-16T08:58:55;93977.47;;;4.65;71.56
6389;BME280;3227;42.654;23.360;2024-01-16T09:01:21;93978.13;;;4.50;71.66
6389;BME280;3227;42.654;23.360;2024-01-16T09:03:49;93973.13;;;4.56;73.18
6389;BME280;3227;42.654;23.360;2024-01-16T09:06:15;93974.03;;;4.60;73.84
6389;BME280;3227;42.654;23.360;2024-01-16T09:08:42;93985.69;;;4.47;71.63
6389;BME280;3227;42.654;23.360;2024-01-16T09:11:09;93973.69;;;4.37;72.73
6389;BME280;3227;42.654;23.360;2024-01-16T09:13:37;93981.56;;;4.55;72.23
6389;BME280;3227;42.654;23.360;2024-01-16T09:16:05;93985.28;;;4.82;72.04
6389;BME280;3227;42.654;23.360;2024-01-16T09:18:32;93982.72;;;4.80;71.20
6389;BME280;3227;42.654;23.360;2024-01-16T09:20:59;93986.41;;;5.02;72.39
6389;BME280;3227;42.654;23.360;2024-01-16T09:23:25;93985.66;;;5.12;70.30
6389;BME280;3227;42.654;23.360;2024-01-16T09:25:52;93990.84;;;5.21;71.29
6389;BME280;3227;42.654;23.360;2024-01-16T09:28:19;93993.38;;;5.21;69.88
6389;BME280;3227;42.654;23.360;2024-01-16T09:30:46;93992.66;;;5.31;69.46
6389;BME280;3227;42.654;23.360;2024-01-16T09:33:14;93997.63;;;5.22;69.53
6389;BME280;3227;42.654;23.360;2024-01-16T09:35:42;93989.19;;;5.23;69.12
6389;BME280;3227;42.654;23.360;2024-01-16T09:38:09;94002.88;;;5.38;68.43
6389;BME280;3227;42.654;23.360;2024-01-16T09:40:35;93985.97;;;5.40;69.54
6389;BME280;3227;42.654;23.360;2024-01-16T09:43:03;93909.31;;;4.95;67.68
6389;BME280;3227;42.654;23.360;2024-01-16T09:45:37;93987.88;;;5.62;68.90
6389;BME280;3227;42.654;23.360;2024-01-16T09:48:05;93987.97;;;5.71;68.75
6389;BME280;3227;42.654;23.360;2024-01-16T09:50:34;94000.75;;;5.79;67.16
6389;BME280;3227;42.654;23.360;2024-01-16T09:53:02;94005.03;;;5.83;66.72
6389;BME280;3227;42.654;23.360;2024-01-16T09:55:29;94009.13;;;5.70;66.60
6389;BME280;3227;42.654;23.360;2024-01-16T09:57:57;93955.50;;;5.40;66.45
6389;BME280;3227;42.654;23.360;2024-01-16T10:00:24;93995.59;;;5.68;66.17
6389;BME280;3227;42.654;23.360;2024-01-16T10:02:53;93992.22;;;5.70;65.28
6389;BME280;3227;42.654;23.360;2024-01-16T10:05:24;93988.72;;;5.61;65.34
6389;BME280;3227;42.654;23.360;2024-01-16T10:07:52;94000.72;;;5.77;65.52
6389;BME280;3227;42.654;23.360;2024-01-16T10:10:19;93995.69;;;5.80;64.76
6389;BME280;3227;42.654;23.360;2024-01-16T10:12:49;94001.78;;;5.91;65.55
6389;BME280;3227;42.654;23.360;2024-01-16T10:15:19;93998.53;;;6.10;66.05
6389;BME280;3227;42.654;23.360;2024-01-16T10:17:46;94004.47;;;6.08;63.11
6389;BME280;3227;42.654;23.360;2024-01-16T10:20:13;93980.59;;;5.94;64.04
6389;BME280;3227;42.654;23.360;2024-01-16T10:22:53;94003.59;;;6.10;62.31
6389;BME280;3227;42.654;23.360;2024-01-16T10:25:20;94008.69;;;6.10;62.39
6389;BME280;3227;42.654;23.360;2024-01-16T10:27:48;94008.69;;;6.07;62.55
6389;BME280;3227;42.654;23.360;2024-01-16T10:30:21;94001.22;;;6.26;63.83
6389;BME280;3227;42.654;23.360;2024-01-16T10:32:48;93998.75;;;6.38;61.61
6389;BME280;3227;42.654;23.360;2024-01-16T10:35:15;94008.09;;;6.39;61.13
6389;BME280;3227;42.654;23.360;2024-01-16T10:37:43;94008.06;;;6.37;61.56
6389;BME280;3227;42.654;23.360;2024-01-16T10:40:14;94008.09;;;6.40;62.53
6389;BME280;3227;42.654;23.360;2024-01-16T10:42:58;93979.13;;;6.23;60.24
6389;BME280;3227;42.654;23.360;2024-01-16T10:45:25;94020.97;;;6.63;60.44
6389;BME280;3227;42.654;23.360;2024-01-16T10:48:00;93965.53;;;6.21;58.67
6389;BME280;3227;42.654;23.360;2024-01-16T10:50:27;94022.38;;;6.23;60.06
6389;BME280;3227;42.654;23.360;2024-01-16T10:52:54;94019.13;;;6.44;60.62
6389;BME280;3227;42.654;23.360;2024-01-16T10:55:23;94020.84;;;6.45;59.03
6389;BME280;3227;42.654;23.360;2024-01-16T10:57:50;94015.00;;;6.61;60.12
6389;BME280;3227;42.654;23.360;2024-01-16T11:00:19;93975.13;;;6.57;58.53
6389;BME280;3227;42.654;23.360;2024-01-16T11:02:54;94011.78;;;6.86;57.66
6389;BME280;3227;42.654;23.360;2024-01-16T11:05:24;94017.75;;;6.95;57.63
6389;BME280;3227;42.654;23.360;2024-01-16T11:07:54;94019.50;;;7.02;57.72
6389;BME280;3227;42.654;23.360;2024-01-16T11:10:23;94026.38;;;7.15;58.03
6389;BME280;3227;42.654;23.360;2024-01-16T11:12:51;94017.09;;;7.31;58.52
6389;BME280;3227;42.654;23.360;2024-01-16T11:15:19;94029.00;;;7.36;57.13
6389;BME280;3227;42.654;23.360;2024-01-16T11:17:47;94029.84;;;7.35;57.32
6389;BME280;3227;42.654;23.360;2024-01-16T11:20:14;94038.31;;;7.30;56.25
6389;BME280;3227;42.654;23.360;2024-01-16T11:22:56;94009.25;;;6.90;57.04
6389;BME280;3227;42.654;23.360;2024-01-16T11:25:32;94024.63;;;7.08;57.82
6389;BME280;3227;42.654;23.360;2024-01-16T11:28:08;94003.34;;;7.01;58.39
6389;BME280;3227;42.654;23.360;2024-01-16T11:30:35;94028.97;;;7.24;59.05
6389;BME280;3227;42.654;23.360;2024-01-16T11:33:02;94024.69;;;7.26;59.07
6389;BME280;3227;42.654;23.360;2024-01-16T11:35:34;94036.63;;;7.33;57.44
6389;BME280;3227;42.654;23.360;2024-01-16T11:38:06;93965.84;;;6.65;57.78
6389;BME280;3227;42.654;23.360;2024-01-16T11:40:36;94004.94;;;6.78;57.41
6389;BME280;3227;42.654;23.360;2024-01-16T11:43:35;94039.72;;;6.74;59.43
6389;BME280;3227;42.654;23.360;2024-01-16T11:46:04;94020.81;;;6.43;58.03
6389;BME280;3227;42.654;23.360;2024-01-16T11:48:31;94035.69;;;5.96;60.79
6389;BME280;3227;42.654;23.360;2024-01-16T11:50:58;94017.19;;;6.13;60.91
6389;BME280;3227;42.654;23.360;2024-01-16T11:53:34;94059.78;;;6.35;60.50
6389;BME280;3227;42.654;23.360;2024-01-16T11:56:15;94057.34;;;6.47;60.66
6389;BME280;3227;42.654;23.360;2024-01-16T11:58:57;94045.34;;;6.31;61.41
6389;BME280;3227;42.654;23.360;2024-01-16T12:01:29;94017.69;;;5.78;62.57
6389;BME280;3227;42.654;23.360;2024-01-16T12:04:03;94046.72;;;5.95;63.14
6389;BME280;3227;42.654;23.360;2024-01-16T12:06:31;93860.13;;;4.86;62.52
6389;BME280;3227;42.654;23.360;2024-01-16T12:09:11;94069.19;;;5.60;64.22
6389;BME280;3227;42.654;23.360;2024-01-16T12:11:40;94070.69;;;5.45;65.68
6389;BME280;3227;42.654;23.360;2024-01-16T12:14:08;94075.94;;;5.57;66.83
6389;BME280;3227;42.654;23.360;2024-01-16T12:16:36;94081.34;;;5.84;66.52
6389;BME280;3227;42.654;23.360;2024-01-16T12:19:06;94080.75;;;6.09;64.07
6389;BME280;3227;42.654;23.360;2024-01-16T12:21:34;94087.19;;;5.79;61.42
6389;BME280;3227;42.654;23.360;2024-01-16T12:24:02;94073.47;;;5.63;63.01
6389;BME280;3227;42.654;23.360;2024-01-16T12:26:29;94074.47;;;5.79;62.59
6389;BME280;3227;42.654;23.360;2024-01-16T12:28:58;94062.66;;;5.82;62.15
6389;BME280;3227;42.654;23.360;2024-01-16T12:31:25;94082.25;;;5.89;61.83
6389;BME280;3227;42.654;23.360;2024-01-16T12:33:52;94083.25;;;6.03;63.31
6389;BME280;3227;42.654;23.360;2024-01-16T12:36:19;94084.34;;;6.30;64.29
6389;BME280;3227;42.654;23.360;2024-01-16T12:38:54;94081.91;;;6.45;62.32
6389;BME280;3227;42.654;23.360;2024-01-16T12:41:23;94082.06;;;6.63;63.54
6389;BME280;3227;42.654;23.360;2024-01-16T12:43:51;94087.22;;;6.71;61.52
6389;BME280;3227;42.654;23.360;2024-01-16T12:46:19;94097.34;;;6.63;59.10
6389;BME280;3227;42.654;23.360;2024-01-16T12:48:46;94095.63;;;6.62;60.14
6389;BME280;3227;42.654;23.360;2024-01-16T12:51:20;94057.31;;;6.41;60.67
6389;BME280;3227;42.654;23.360;2024-01-16T12:53:47;93984.09;;;6.06;61.51
6389;BME280;3227;42.654;23.360;2024-01-16T12:56:18;94063.38;;;6.58;61.10
6389;BME280;3227;42.654;23.360;2024-01-16T12:58:46;94074.44;;;6.65;60.81
6389;BME280;3227;42.654;23.360;2024-01-16T13:01:24;94066.75;;;6.60;58.53
6389;BME280;3227;42.654;23.360;2024-01-16T13:03:51;94088.97;;;6.79;60.87
6389;BME280;3227;42.654;23.360;2024-01-16T13:06:19;94057.53;;;6.77;59.79
6389;BME280;3227;42.654;23.360;2024-01-16T13:08:46;94101.75;;;6.82;59.46
6389;BME280;3227;42.654;23.360;2024-01-16T13:11:13;94049.66;;;6.44;58.84
6389;BME280;3227;42.654;23.360;2024-01-16T13:13:45;94075.72;;;6.14;60.00
6389;BME280;3227;42.654;23.360;2024-01-16T13:16:12;94103.69;;;6.13;60.42
6389;BME280;3227;42.654;23.360;2024-01-16T13:18:40;94060.81;;;5.67;61.82
6389;BME280;3227;42.654;23.360;2024-01-16T13:21:07;93997.66;;;5.24;62.02
6389;BME280;3227;42.654;23.360;2024-01-16T13:23:34;94111.22;;;6.05;62.94
6389;BME280;3227;42.654;23.360;2024-01-16T13:26:01;94105.28;;;6.04;64.02